Time;durP1;ratioP1;P1;durP2;ratioP2;P2;SDS_P1;SDS_P2;PMS_P1;PMS_P2;Temp;Humidity;BMP_temperature;BMP_pressure;BME280_temperature;BME280_humidity;BME280_pressure;Samples;Min_cycle;Max_cycle;Signal;HPM_P1;HPM_P2
2023/02/28 00:00:34;;;;;;;6.55;3.20;;;;;;;;;;4980579;28;20060;-78
2023/02/28 00:03:00;;;;;;;5.22;3.17;;;;;;;;;;4964259;28;20050;-78
2023/02/28 00:05:28;;;;;;;5.78;3.13;;;;;;;;;;4979457;28;20104;-79
2023/02/28 00:07:55;;;;;;;5.13;2.40;;;;;;;;;;4980187;28;20054;-78
2023/02/28 00:10:24;;;;;;;4.43;2.90;;;;;;;;;;4976968;28;20142;-78
2023/02/28 00:12:51;;;;;;;5.95;2.80;;;;;;;;;;4963917;28;20050;-78
2023/02/28 00:15:18;;;;;;;4.65;2.78;;;;;;;;;;4976188;28;20511;-78
2023/02/28 00:17:45;;;;;;;4.95;3.05;;;;;;;;;;4975034;28;20511;-78
2023/02/28 00:20:13;;;;;;;6.10;3.25;;;;;;;;;;4979884;28;20069;-78
2023/02/28 00:22:41;;;;;;;5.28;3.10;;;;;;;;;;4957663;28;20087;-77
2023/02/28 00:25:09;;;;;;;5.13;3.05;;;;;;;;;;5005134;28;20054;-77
2023/02/28 00:27:37;;;;;;;9.82;4.03;;;;;;;;;;4976213;28;20096;-77
2023/02/28 00:30:05;;;;;;;6.30;3.85;;;;;;;;;;4976410;28;20054;-77
2023/02/28 00:32:32;;;;;;;4.93;2.95;;;;;;;;;;4992166;28;20061;-77
2023/02/28 00:34:58;;;;;;;5.18;3.20;;;;;;;;;;4991658;28;20054;-77
2023/02/28 00:37:25;;;;;;;5.95;3.25;;;;;;;;;;4992124;28;20133;-77
2023/02/28 00:39:52;;;;;;;4.97;2.63;;;;;;;;;;4976423;28;20422;-77
2023/02/28 00:42:18;;;;;;;4.32;2.60;;;;;;;;;;4976804;28;20042;-78
2023/02/28 00:44:45;;;;;;;4.63;3.03;;;;;;;;;;4976575;28;20164;-77
2023/02/28 00:47:12;;;;;;;5.88;2.80;;;;;;;;;;4992578;28;20058;-77
2023/02/28 00:49:39;;;;;;;5.32;3.25;;;;;;;;;;4976005;28;20503;-77
2023/02/28 00:52:06;;;;;;;5.80;2.80;;;;;;;;;;4976097;28;20061;-77
2023/02/28 00:54:32;;;;;;;4.32;3.00;;;;;;;;;;4967261;28;20076;-77
2023/02/28 00:56:59;;;;;;;4.00;2.70;;;;;;;;;;4975718;28;20069;-76
2023/02/28 00:59:26;;;;;;;5.88;2.60;;;;;;;;;;4991942;28;20058;-77
2023/02/28 01:01:53;;;;;;;3.65;2.53;;;;;;;;;;4990604;28;20411;-76
2023/02/28 01:04:19;;;;;;;5.22;3.20;;;;;;;;;;4993020;28;20407;-78
2023/02/28 01:06:46;;;;;;;4.47;3.13;;;;;;;;;;4974731;28;20121;-79
2023/02/28 01:09:13;;;;;;;4.18;2.72;;;;;;;;;;4966150;28;20057;-79
2023/02/28 01:11:41;;;;;;;4.25;3.00;;;;;;;;;;4992989;28;20060;-78
2023/02/28 01:14:08;;;;;;;5.80;3.05;;;;;;;;;;4961258;28;20122;-77
2023/02/28 01:16:35;;;;;;;6.00;3.17;;;;;;;;;;4976189;28;20499;-78
2023/02/28 01:19:01;;;;;;;5.25;3.30;;;;;;;;;;4976618;28;20062;-78
2023/02/28 01:21:29;;;;;;;5.15;3.25;;;;;;;;;;4976825;28;20418;-78
2023/02/28 01:23:57;;;;;;;5.20;3.35;;;;;;;;;;4993663;28;20145;-79
2023/02/28 01:26:24;;;;;;;3.58;2.83;;;;;;;;;;4977284;28;20150;-79
2023/02/28 01:28:52;;;;;;;5.38;3.53;;;;;;;;;;4977100;28;20061;-78
2023/02/28 01:31:19;;;;;;;6.07;3.45;;;;;;;;;;4992135;28;20058;-78
2023/02/28 01:33:46;;;;;;;4.30;3.28;;;;;;;;;;4976611;28;20535;-79
2023/02/28 01:36:21;;;;;;;4.38;3.13;;;;;;;;;;4992642;28;20054;-79
2023/02/28 01:38:48;;;;;;;5.07;3.35;;;;;;;;;;4960242;28;20050;-78
2023/02/28 01:41:26;;;;;;;6.22;3.38;;;;;;;;;;4992132;28;20061;-78
2023/02/28 01:44:03;;;;;;;4.72;3.53;;;;;;;;;;4976727;28;20129;-80
2023/02/28 01:46:35;;;;;;;4.63;3.40;;;;;;;;;;4962035;28;20125;-78
2023/02/28 01:49:09;;;;;;;4.47;3.20;;;;;;;;;;4994864;28;20054;-77
2023/02/28 01:51:38;;;;;;;7.38;3.85;;;;;;;;;;4978352;28;20146;-78
2023/02/28 01:54:16;;;;;;;7.10;3.67;;;;;;;;;;4972611;28;20384;-78
2023/02/28 01:56:54;;;;;;;6.82;3.60;;;;;;;;;;5001205;28;20051;-78
2023/02/28 01:59:32;;;;;;;4.88;3.78;;;;;;;;;;4969750;28;20060;-78
2023/02/28 02:01:59;;;;;;;5.85;3.97;;;;;;;;;;4988283;28;20062;-78
2023/02/28 02:04:32;;;;;;;7.05;4.97;;;;;;;;;;4999076;28;20062;-78
2023/02/28 02:06:59;;;;;;;6.18;4.13;;;;;;;;;;4981868;28;20058;-78
2023/02/28 02:09:26;;;;;;;4.32;3.47;;;;;;;;;;4988229;28;20549;-77
2023/02/28 02:11:53;;;;;;;4.82;3.85;;;;;;;;;;4977458;28;20046;-78
2023/02/28 02:14:28;;;;;;;6.18;3.90;;;;;;;;;;4962269;28;20058;-77
2023/02/28 02:17:20;;;;;;;5.60;4.40;;;;;;;;;;4991858;28;20054;-78
2023/02/28 02:19:58;;;;;;;5.82;3.80;;;;;;;;;;4986248;28;20057;-77
2023/02/28 02:23:03;;;;;;;6.68;4.25;;;;;;;;;;4996917;28;20042;-77
2023/02/28 02:25:34;;;;;;;4.82;4.32;;;;;;;;;;4991328;28;20046;-77
2023/02/28 02:28:18;;;;;;;5.10;3.65;;;;;;;;;;4990786;28;20507;-77
2023/02/28 02:31:21;;;;;;;5.03;3.58;;;;;;;;;;4959038;28;20112;-76
2023/02/28 02:33:57;;;;;;;7.25;4.60;;;;;;;;;;4962873;28;20105;-76
2023/02/28 02:36:25;;;;;;;4.72;3.67;;;;;;;;;;4985323;28;20050;-76
2023/02/28 02:38:56;;;;;;;7.35;3.95;;;;;;;;;;4982562;28;20515;-76
2023/02/28 02:41:28;;;;;;;6.28;4.32;;;;;;;;;;4989552;28;20050;-81
2023/02/28 02:44:10;;;;;;;7.57;3.72;;;;;;;;;;4993375;28;20050;-80
2023/02/28 02:46:46;;;;;;;5.07;3.85;;;;;;;;;;4990898;28;20058;-77
2023/02/28 02:49:20;;;;;;;6.30;4.32;;;;;;;;;;4994069;28;20058;-77
2023/02/28 02:51:47;;;;;;;5.82;4.43;;;;;;;;;;4972742;28;20069;-77
2023/02/28 02:54:15;;;;;;;5.78;4.15;;;;;;;;;;4989968;28;20085;-78
2023/02/28 02:56:43;;;;;;;6.53;4.32;;;;;;;;;;5006197;28;20122;-76
2023/02/28 02:59:12;;;;;;;6.53;4.40;;;;;;;;;;4974395;28;20054;-78
2023/02/28 03:01:39;;;;;;;5.50;4.30;;;;;;;;;;4986572;28;20054;-77
2023/02/28 03:04:12;;;;;;;7.22;4.40;;;;;;;;;;4984452;28;20062;-77
2023/02/28 03:06:39;;;;;;;;;;;;;;;;;;4985440;28;20054;-77
2023/02/28 03:09:05;;;;;;;5.95;4.38;;;;;;;;;;4983120;28;19925;-77
2023/02/28 03:11:32;;;;;;;7.85;4.20;;;;;;;;;;4982606;28;20059;-77
2023/02/28 03:14:38;;;;;;;4.88;4.20;;;;;;;;;;4963935;28;20546;-77
2023/02/28 03:17:13;;;;;;;5.68;4.53;;;;;;;;;;4970057;28;20058;-77
2023/02/28 03:19:45;;;;;;;7.22;4.40;;;;;;;;;;4991291;28;20065;-77
2023/02/28 03:22:31;;;;;;;7.70;4.82;;;;;;;;;;4991305;28;20058;-77
2023/02/28 03:25:08;;;;;;;5.82;4.57;;;;;;;;;;4991892;28;20058;-77
2023/02/28 03:27:41;;;;;;;7.47;4.50;;;;;;;;;;4995437;28;20054;-77
2023/02/28 03:30:34;;;;;;;;;;;;;;;;;;4978962;28;20394;-77
2023/02/28 03:33:16;;;;;;;5.28;4.15;;;;;;;;;;4989504;28;19945;-77
2023/02/28 03:36:04;;;;;;;7.10;4.63;;;;;;;;;;4994263;28;20076;-77
2023/02/28 03:38:41;;;;;;;8.80;4.78;;;;;;;;;;4993969;28;20062;-76
2023/02/28 03:41:15;;;;;;;6.25;4.35;;;;;;;;;;4979992;28;20050;-77
2023/02/28 03:43:45;;;;;;;5.50;3.95;;;;;;;;;;4963800;28;20577;-77
2023/02/28 03:46:13;;;;;;;6.30;4.47;;;;;;;;;;4978465;28;20054;-77
2023/02/28 03:48:45;;;;;;;5.45;4.43;;;;;;;;;;4994634;28;20060;-77
2023/02/28 03:51:17;;;;;;;7.00;4.82;;;;;;;;;;4994826;28;20061;-77
2023/02/28 03:53:51;;;;;;;7.00;4.90;;;;;;;;;;4996373;28;20060;-76
2023/02/28 03:56:24;;;;;;;8.65;4.60;;;;;;;;;;4996584;28;20057;-77
2023/02/28 03:58:51;;;;;;;5.70;4.63;;;;;;;;;;4964199;28;20062;-77
2023/02/28 04:01:30;;;;;;;6.88;4.68;;;;;;;;;;4995273;28;20054;-76
2023/02/28 04:03:58;;;;;;;6.13;4.38;;;;;;;;;;4994844;28;20112;-77
2023/02/28 04:06:25;;;;;;;8.13;4.88;;;;;;;;;;4978961;28;20057;-77
2023/02/28 04:08:51;;;;;;;7.70;4.72;;;;;;;;;;4995349;28;20140;-77
2023/02/28 04:11:18;;;;;;;6.55;5.28;;;;;;;;;;4995157;28;20058;-77
2023/02/28 04:13:45;;;;;;;5.90;4.60;;;;;;;;;;4992604;28;20050;-77
2023/02/28 04:16:13;;;;;;;5.82;4.45;;;;;;;;;;4993562;28;20049;-77
2023/02/28 04:19:01;;;;;;;6.25;5.18;;;;;;;;;;4978734;28;20065;-77
2023/02/28 04:21:33;;;;;;;9.57;5.25;;;;;;;;;;4977009;28;20108;-77
2023/02/28 04:24:00;;;;;;;7.47;6.05;;;;;;;;;;4960155;28;20054;-76
2023/02/28 04:26:35;;;;;;;7.88;4.63;;;;;;;;;;4992303;28;20185;-77
2023/02/28 04:29:04;;;;;;;5.55;4.50;;;;;;;;;;4992940;28;20072;-77
2023/02/28 04:31:30;;;;;;;7.38;4.85;;;;;;;;;;4961219;28;20073;-77
2023/02/28 04:33:58;;;;;;;6.50;4.85;;;;;;;;;;4974380;28;20082;-77
2023/02/28 04:36:24;;;;;;;5.72;4.63;;;;;;;;;;4997264;28;20069;-77
2023/02/28 04:38:51;;;;;;;6.70;4.68;;;;;;;;;;4975097;28;20507;-77
2023/02/28 04:41:18;;;;;;;8.57;5.10;;;;;;;;;;4991019;28;20647;-77
2023/02/28 04:43:45;;;;;;;5.93;4.57;;;;;;;;;;4991087;28;20073;-77
2023/02/28 04:46:12;;;;;;;6.18;4.93;;;;;;;;;;4974854;28;20573;-77
2023/02/28 04:48:40;;;;;;;7.68;5.00;;;;;;;;;;4974859;28;20061;-77
2023/02/28 04:51:10;;;;;;;9.07;5.45;;;;;;;;;;4975063;28;20077;-76
2023/02/28 04:53:38;;;;;;;6.78;5.25;;;;;;;;;;4974808;28;20787;-77
2023/02/28 04:56:06;;;;;;;6.00;5.03;;;;;;;;;;4974575;28;20133;-78
2023/02/28 04:58:33;;;;;;;7.05;5.25;;;;;;;;;;4958885;28;20438;-77
2023/02/28 05:01:15;;;;;;;8.98;5.25;;;;;;;;;;4958638;28;20419;-78
2023/02/28 05:03:42;;;;;;;8.20;5.22;;;;;;;;;;4962451;28;20062;-77
2023/02/28 05:06:10;;;;;;;6.78;4.95;;;;;;;;;;4992491;28;20050;-77
2023/02/28 05:08:37;;;;;;;6.97;5.18;;;;;;;;;;4976815;28;20058;-77
2023/02/28 05:11:11;;;;;;;8.05;5.70;;;;;;;;;;4991721;28;20077;-76
2023/02/28 05:13:38;;;;;;;8.57;5.30;;;;;;;;;;4975623;28;20046;-77
2023/02/28 05:16:05;;;;;;;10.57;5.85;;;;;;;;;;4990910;28;20054;-76
2023/02/28 05:18:32;;;;;;;8.90;6.05;;;;;;;;;;4958355;28;20407;-76
2023/02/28 05:21:01;;;;;;;8.63;5.93;;;;;;;;;;4975315;28;20050;-77
2023/02/28 05:23:29;;;;;;;7.55;5.78;;;;;;;;;;4991582;28;20410;-77
2023/02/28 05:25:55;;;;;;;10.98;6.38;;;;;;;;;;4991383;28;20074;-77
2023/02/28 05:28:22;;;;;;;8.88;6.53;;;;;;;;;;4975857;28;20069;-77
2023/02/28 05:30:49;;;;;;;11.35;6.50;;;;;;;;;;4991783;28;20054;-77
2023/02/28 05:33:16;;;;;;;10.23;7.03;;;;;;;;;;4975519;28;20053;-77
2023/02/28 05:35:42;;;;;;;9.88;6.90;;;;;;;;;;4959690;28;20050;-77
2023/02/28 05:38:09;;;;;;;9.00;6.88;;;;;;;;;;4959799;28;20093;-77
2023/02/28 05:40:38;;;;;;;10.18;6.63;;;;;;;;;;4992061;28;20046;-77
2023/02/28 05:43:05;;;;;;;9.35;5.97;;;;;;;;;;4976104;28;20056;-77
2023/02/28 05:45:32;;;;;;;9.90;6.43;;;;;;;;;;4975879;28;20066;-77
2023/02/28 05:47:59;;;;;;;8.40;5.57;;;;;;;;;;4974907;28;20486;-76
2023/02/28 05:50:26;;;;;;;8.73;6.28;;;;;;;;;;4973614;28;20426;-75
2023/02/28 05:52:53;;;;;;;7.93;5.97;;;;;;;;;;4989753;28;20050;-75
2023/02/28 05:55:19;;;;;;;10.98;7.32;;;;;;;;;;4990888;28;20050;-77
2023/02/28 05:57:46;;;;;;;9.15;6.22;;;;;;;;;;4973414;28;20067;-77
2023/02/28 06:00:14;;;;;;;9.55;5.93;;;;;;;;;;4991677;28;20064;-77
2023/02/28 06:02:41;;;;;;;8.57;5.97;;;;;;;;;;4975901;28;20066;-77
2023/02/28 06:05:13;;;;;;;7.63;5.88;;;;;;;;;;4959619;28;20051;-78
2023/02/28 06:07:40;;;;;;;7.07;5.57;;;;;;;;;;4993093;28;20467;-78
2023/02/28 06:10:07;;;;;;;8.20;5.68;;;;;;;;;;4977963;28;20530;-78
2023/02/28 06:12:34;;;;;;;8.93;5.82;;;;;;;;;;4978092;28;20058;-79
2023/02/28 06:15:00;;;;;;;7.63;5.60;;;;;;;;;;4994445;28;20495;-78
2023/02/28 06:17:27;;;;;;;8.40;6.07;;;;;;;;;;4977905;28;20586;-78
2023/02/28 06:19:54;;;;;;;10.55;6.03;;;;;;;;;;4992455;28;20056;-78
2023/02/28 06:22:21;;;;;;;8.75;6.03;;;;;;;;;;4992898;28;20057;-78
2023/02/28 06:24:47;;;;;;;9.35;6.55;;;;;;;;;;4977669;28;20043;-78
2023/02/28 06:27:14;;;;;;;8.35;5.82;;;;;;;;;;4976306;28;20058;-78
2023/02/28 06:29:41;;;;;;;9.18;6.47;;;;;;;;;;4992367;28;20141;-78
2023/02/28 06:32:08;;;;;;;8.50;6.35;;;;;;;;;;4976318;28;20050;-78
2023/02/28 06:34:34;;;;;;;9.35;5.90;;;;;;;;;;4992343;28;20109;-79
2023/02/28 06:37:01;;;;;;;9.90;6.50;;;;;;;;;;4962847;28;20554;-78
2023/02/28 06:39:30;;;;;;;10.73;7.03;;;;;;;;;;4981357;28;20050;-81
2023/02/28 06:41:56;;;;;;;13.00;6.65;;;;;;;;;;4981283;28;20055;-81
2023/02/28 06:44:24;;;;;;;10.00;6.93;;;;;;;;;;4975611;28;20074;-75
2023/02/28 06:46:51;;;;;;;7.55;5.82;;;;;;;;;;4992049;28;20110;-75
2023/02/28 06:49:17;;;;;;;7.70;6.07;;;;;;;;;;4986176;28;20515;-77
2023/02/28 06:51:45;;;;;;;9.00;6.95;;;;;;;;;;4965536;28;20058;-77
2023/02/28 06:54:13;;;;;;;11.65;6.88;;;;;;;;;;5000227;28;20043;-74
2023/02/28 06:56:40;;;;;;;10.65;7.10;;;;;;;;;;4955794;28;20051;-74
2023/02/28 06:59:06;;;;;;;10.63;6.05;;;;;;;;;;4971607;28;20069;-75
2023/02/28 07:01:33;;;;;;;8.02;6.13;;;;;;;;;;4975198;28;20094;-75
2023/02/28 07:04:00;;;;;;;10.63;6.68;;;;;;;;;;4959143;28;20051;-75
2023/02/28 07:06:27;;;;;;;9.98;6.35;;;;;;;;;;4965780;28;20141;-76
2023/02/28 07:08:54;;;;;;;10.82;6.00;;;;;;;;;;4976794;28;20058;-76
2023/02/28 07:11:25;;;;;;;8.93;6.25;;;;;;;;;;4977360;28;20600;-77
2023/02/28 07:13:55;;;;;;;10.50;6.82;;;;;;;;;;4995784;28;20058;-77
2023/02/28 07:16:24;;;;;;;9.05;6.45;;;;;;;;;;4990373;28;20054;-76
2023/02/28 07:18:54;;;;;;;7.43;5.63;;;;;;;;;;4955375;28;20054;-76
2023/02/28 07:21:21;;;;;;;8.68;6.18;;;;;;;;;;4984463;28;20423;-76
2023/02/28 07:23:48;;;;;;;8.48;5.65;;;;;;;;;;4985053;28;20052;-76
2023/02/28 07:26:16;;;;;;;9.73;6.05;;;;;;;;;;4992579;28;20061;-76
2023/02/28 07:28:45;;;;;;;10.13;6.95;;;;;;;;;;4958715;28;20117;-77
2023/02/28 07:31:18;;;;;;;7.55;5.72;;;;;;;;;;4960817;28;20451;-79
2023/02/28 07:33:45;;;;;;;10.55;6.53;;;;;;;;;;4966711;28;20057;-74
2023/02/28 07:36:15;;;;;;;8.60;5.88;;;;;;;;;;4992248;28;20088;-75
2023/02/28 07:38:53;;;;;;;10.70;6.43;;;;;;;;;;4962111;28;20121;-76
2023/02/28 07:41:21;;;;;;;10.27;6.43;;;;;;;;;;4992849;28;20112;-76
2023/02/28 07:43:48;;;;;;;8.15;6.20;;;;;;;;;;4991414;28;20551;-75
2023/02/28 07:46:16;;;;;;;8.70;7.25;;;;;;;;;;4991971;28;20435;-76
2023/02/28 07:48:43;;;;;;;8.20;6.28;;;;;;;;;;4990423;28;20058;-76
2023/02/28 07:51:10;;;;;;;10.20;6.00;;;;;;;;;;4975489;28;20435;-76
2023/02/28 07:53:37;;;;;;;10.52;7.38;;;;;;;;;;4979560;28;20522;-75
2023/02/28 07:56:04;;;;;;;9.32;6.38;;;;;;;;;;4975508;28;20065;-75
2023/02/28 07:58:31;;;;;;;8.85;6.45;;;;;;;;;;4991875;28;20054;-76
2023/02/28 08:01:04;;;;;;;10.43;6.38;;;;;;;;;;4992177;28;20054;-75
2023/02/28 08:03:31;;;;;;;9.32;6.93;;;;;;;;;;4976969;28;20065;-76
2023/02/28 08:05:57;;;;;;;12.43;6.82;;;;;;;;;;4991933;28;20484;-75
2023/02/28 08:08:31;;;;;;;9.15;6.97;;;;;;;;;;4975563;28;20050;-75
2023/02/28 08:10:58;;;;;;;;;;;;;;;;;;4992000;28;20084;-76
2023/02/28 08:13:25;;;;;;;10.27;6.97;;;;;;;;;;4991956;28;19937;-77
2023/02/28 08:15:51;;;;;;;12.52;7.93;;;;;;;;;;4992393;28;20541;-76
2023/02/28 08:18:18;;;;;;;11.85;7.88;;;;;;;;;;4992315;28;20046;-75
2023/02/28 08:20:45;;;;;;;9.40;6.75;;;;;;;;;;4992199;28;20538;-76
2023/02/28 08:23:12;;;;;;;11.40;7.75;;;;;;;;;;4992148;28;20052;-78
2023/02/28 08:25:39;;;;;;;11.80;7.18;;;;;;;;;;4959255;28;20090;-76
2023/02/28 08:28:05;;;;;;;10.13;6.53;;;;;;;;;;4959224;28;20278;-76
2023/02/28 08:30:32;;;;;;;11.07;7.35;;;;;;;;;;4991733;28;20437;-75
2023/02/28 08:32:59;;;;;;;9.65;7.00;;;;;;;;;;4974962;28;20065;-76
2023/02/28 08:35:26;;;;;;;11.20;7.65;;;;;;;;;;4991716;28;20225;-76
2023/02/28 08:37:52;;;;;;;11.90;7.38;;;;;;;;;;4975017;28;20459;-76
2023/02/28 08:40:19;;;;;;;13.43;7.80;;;;;;;;;;4990703;28;20062;-75
2023/02/28 08:42:47;;;;;;;10.10;6.75;;;;;;;;;;4991146;28;20058;-75
2023/02/28 08:45:14;;;;;;;10.35;7.70;;;;;;;;;;4991116;28;20064;-75
2023/02/28 08:47:44;;;;;;;10.43;7.60;;;;;;;;;;4990903;28;20093;-74
2023/02/28 08:50:11;;;;;;;9.57;7.05;;;;;;;;;;4991662;28;20149;-73
2023/02/28 08:52:38;;;;;;;9.90;7.78;;;;;;;;;;4974562;28;20065;-77
2023/02/28 08:55:05;;;;;;;9.27;6.78;;;;;;;;;;4958667;28;20076;-76
2023/02/28 08:57:32;;;;;;;9.80;8.23;;;;;;;;;;4997005;28;20065;-76
2023/02/28 08:59:59;;;;;;;11.88;7.40;;;;;;;;;;4987653;28;20454;-74
2023/02/28 09:02:26;;;;;;;10.25;7.40;;;;;;;;;;4976767;28;20074;-78
2023/02/28 09:04:54;;;;;;;9.95;7.70;;;;;;;;;;4997984;28;20051;-84
2023/02/28 09:07:21;;;;;;;10.65;7.00;;;;;;;;;;4986715;28;20046;-76
2023/02/28 09:09:53;;;;;;;10.70;7.55;;;;;;;;;;4998208;28;20137;-76
2023/02/28 09:12:24;;;;;;;10.52;7.20;;;;;;;;;;4985279;28;20062;-74
2023/02/28 09:14:53;;;;;;;10.48;7.13;;;;;;;;;;4979118;28;20316;-75
2023/02/28 09:17:20;;;;;;;11.05;7.32;;;;;;;;;;4978470;28;20110;-74
2023/02/28 09:19:48;;;;;;;10.20;7.18;;;;;;;;;;4982819;28;20051;-75
2023/02/28 09:22:17;;;;;;;11.32;7.40;;;;;;;;;;4993208;28;20157;-75
2023/02/28 09:24:44;;;;;;;11.45;7.00;;;;;;;;;;4986023;28;20066;-75
2023/02/28 09:27:11;;;;;;;12.68;7.30;;;;;;;;;;4977627;28;20730;-76
2023/02/28 09:29:38;;;;;;;11.90;8.05;;;;;;;;;;4979195;28;20058;-76
2023/02/28 09:32:05;;;;;;;12.25;7.97;;;;;;;;;;4958713;28;20054;-76
2023/02/28 09:34:32;;;;;;;10.50;7.40;;;;;;;;;;4977842;28;20055;-76
2023/02/28 09:36:59;;;;;;;12.13;7.45;;;;;;;;;;4978406;28;20054;-75
2023/02/28 09:39:26;;;;;;;9.40;7.18;;;;;;;;;;4962146;28;20086;-76
2023/02/28 09:41:58;;;;;;;11.90;7.47;;;;;;;;;;4997698;28;20170;-75
2023/02/28 09:44:36;;;;;;;9.75;7.28;;;;;;;;;;4981174;28;20043;-76
2023/02/28 09:47:16;;;;;;;9.38;7.45;;;;;;;;;;4966804;28;20069;-75
2023/02/28 09:49:46;;;;;;;11.73;7.55;;;;;;;;;;4998303;28;20085;-76
2023/02/28 09:52:21;;;;;;;10.30;6.97;;;;;;;;;;4991257;28;20055;-76
2023/02/28 09:54:48;;;;;;;11.02;7.20;;;;;;;;;;4991241;28;20053;-75
2023/02/28 09:57:38;;;;;;;8.93;7.60;;;;;;;;;;4993409;28;20050;-76
2023/02/28 10:00:09;;;;;;;11.20;7.55;;;;;;;;;;4997254;28;20419;-76
2023/02/28 10:03:01;;;;;;;10.38;7.65;;;;;;;;;;4991726;28;20116;-76
2023/02/28 10:05:33;;;;;;;12.02;7.70;;;;;;;;;;4991708;28;20539;-76
2023/02/28 10:08:13;;;;;;;10.93;7.78;;;;;;;;;;4991491;28;20058;-76
2023/02/28 10:10:48;;;;;;;10.25;7.53;;;;;;;;;;4992406;28;20112;-76
2023/02/28 10:13:36;;;;;;;13.07;8.35;;;;;;;;;;4990810;28;20068;-76
2023/02/28 10:16:07;;;;;;;10.68;7.53;;;;;;;;;;4975676;28;20482;-76
2023/02/28 10:19:07;;;;;;;11.60;8.02;;;;;;;;;;4975448;28;20525;-75
2023/02/28 10:21:39;;;;;;;10.63;7.65;;;;;;;;;;4990255;28;20050;-75
2023/02/28 10:24:18;;;;;;;11.68;7.85;;;;;;;;;;4974964;28;20154;-75
2023/02/28 10:26:45;;;;;;;10.18;7.50;;;;;;;;;;4990543;28;20050;-75
2023/02/28 10:29:12;;;;;;;10.52;7.43;;;;;;;;;;4973920;28;20065;-76
2023/02/28 10:31:39;;;;;;;10.98;8.23;;;;;;;;;;4990266;28;20046;-75
2023/02/28 10:34:07;;;;;;;10.57;7.85;;;;;;;;;;4989652;28;20431;-76
2023/02/28 10:36:34;;;;;;;9.23;7.30;;;;;;;;;;4989927;28;20069;-76
2023/02/28 10:39:01;;;;;;;10.90;8.18;;;;;;;;;;4973958;28;20586;-75
2023/02/28 10:41:36;;;;;;;11.13;7.47;;;;;;;;;;4973788;28;20422;-76
2023/02/28 10:44:21;;;;;;;10.00;7.25;;;;;;;;;;4990244;28;20089;-76
2023/02/28 10:46:49;;;;;;;13.57;7.70;;;;;;;;;;4990568;28;20062;-75
2023/02/28 10:49:27;;;;;;;9.82;7.78;;;;;;;;;;4989947;28;20060;-76
2023/02/28 10:51:59;;;;;;;14.60;8.13;;;;;;;;;;4990384;28;20077;-76
2023/02/28 10:54:37;;;;;;;9.45;7.13;;;;;;;;;;4974453;28;20055;-76
2023/02/28 10:57:11;;;;;;;10.00;7.25;;;;;;;;;;4990082;28;20120;-76
2023/02/28 10:59:38;;;;;;;11.57;8.10;;;;;;;;;;4974307;28;20062;-76
2023/02/28 11:02:31;;;;;;;10.90;7.45;;;;;;;;;;4974456;28;20062;-75
2023/02/28 11:05:02;;;;;;;9.38;7.43;;;;;;;;;;4990033;28;20058;-75
2023/02/28 11:07:28;;;;;;;12.20;7.85;;;;;;;;;;4974094;28;20058;-76
2023/02/28 11:10:08;;;;;;;10.27;7.97;;;;;;;;;;4975586;28;20137;-76
2023/02/28 11:12:38;;;;;;;12.52;8.15;;;;;;;;;;4974196;28;20409;-76
2023/02/28 11:15:20;;;;;;;9.88;7.85;;;;;;;;;;4990313;28;20502;-76
2023/02/28 11:18:02;;;;;;;8.70;7.13;;;;;;;;;;4989593;28;20058;-76
2023/02/28 11:20:30;;;;;;;11.27;8.18;;;;;;;;;;4990261;28;20054;-75
2023/02/28 11:22:58;;;;;;;10.63;8.10;;;;;;;;;;4975961;28;20145;-76
2023/02/28 11:25:26;;;;;;;9.73;7.45;;;;;;;;;;4974121;28;20054;-76
2023/02/28 11:27:56;;;;;;;11.23;8.45;;;;;;;;;;4989426;28;20046;-76
2023/02/28 11:30:29;;;;;;;9.55;7.40;;;;;;;;;;4990105;28;20092;-76
2023/02/28 11:32:55;;;;;;;;;;;;;;;;;;4989639;28;20050;-73
2023/02/28 11:35:32;;;;;;;10.75;7.50;;;;;;;;;;4989786;28;19929;-73
2023/02/28 11:37:58;;;;;;;10.32;7.15;;;;;;;;;;4989182;28;20050;-73
2023/02/28 11:41:09;;;;;;;11.68;8.13;;;;;;;;;;4989719;28;20054;-74
2023/02/28 11:44:09;;;;;;;11.20;8.50;;;;;;;;;;4978752;28;20061;-75
2023/02/28 11:46:54;;;;;;;12.27;7.43;;;;;;;;;;4991613;28;20510;-75
2023/02/28 11:49:47;;;;;;;8.68;7.25;;;;;;;;;;4977483;28;20061;-76
2023/02/28 11:52:49;;;;;;;10.18;7.32;;;;;;;;;;4992290;28;20059;-77
2023/02/28 11:55:21;;;;;;;9.20;7.35;;;;;;;;;;4976891;28;20061;-77
2023/02/28 11:58:03;;;;;;;9.32;7.03;;;;;;;;;;4976120;28;20058;-76
2023/02/28 12:00:38;;;;;;;9.55;7.25;;;;;;;;;;4993286;28;20046;-76
2023/02/28 12:03:17;;;;;;;10.27;7.60;;;;;;;;;;4992003;28;20054;-76
2023/02/28 12:05:46;;;;;;;10.40;6.93;;;;;;;;;;4992087;28;20058;-76
2023/02/28 12:08:29;;;;;;;11.90;7.32;;;;;;;;;;4992025;28;20441;-76
2023/02/28 12:11:03;;;;;;;9.90;7.53;;;;;;;;;;4960369;28;20054;-76
2023/02/28 12:14:00;;;;;;;9.02;7.22;;;;;;;;;;4976080;28;20066;-75
2023/02/28 12:16:45;;;;;;;10.82;7.03;;;;;;;;;;4988406;28;20058;-76
2023/02/28 12:19:35;;;;;;;8.88;6.80;;;;;;;;;;4974859;28;20094;-76
2023/02/28 12:22:07;;;;;;;9.40;7.03;;;;;;;;;;4991053;28;20050;-76
2023/02/28 12:24:49;;;;;;;9.45;7.32;;;;;;;;;;4991958;28;20054;-76
2023/02/28 12:27:17;;;;;;;9.88;7.05;;;;;;;;;;4991801;28;20634;-77
2023/02/28 12:29:50;;;;;;;9.23;7.38;;;;;;;;;;4975456;28;20434;-76
2023/02/28 12:32:30;;;;;;;10.55;7.45;;;;;;;;;;4975331;28;20062;-74
2023/02/28 12:35:11;;;;;;;10.70;7.60;;;;;;;;;;4978237;28;20549;-75
2023/02/28 12:37:50;;;;;;;9.63;7.80;;;;;;;;;;4992732;28;20054;-75
2023/02/28 12:40:23;;;;;;;10.48;6.90;;;;;;;;;;4975920;28;20054;-76
2023/02/28 12:42:57;;;;;;;9.45;6.43;;;;;;;;;;4991533;28;20054;-76
2023/02/28 12:45:51;;;;;;;8.52;6.32;;;;;;;;;;4971865;28;20463;-75
2023/02/28 12:48:31;;;;;;;10.50;7.38;;;;;;;;;;4983831;28;20134;-76
2023/02/28 12:50:58;;;;;;;7.68;6.40;;;;;;;;;;4981667;28;20454;-75
2023/02/28 12:53:54;;;;;;;7.32;6.15;;;;;;;;;;4968773;28;20118;-75
2023/02/28 12:56:43;;;;;;;8.65;6.60;;;;;;;;;;4992328;28;20458;-76
2023/02/28 12:59:34;;;;;;;9.88;6.43;;;;;;;;;;4995086;28;20062;-76
2023/02/28 13:02:22;;;;;;;11.15;6.88;;;;;;;;;;5000349;28;20139;-76
2023/02/28 13:05:14;;;;;;;9.50;6.35;;;;;;;;;;4986952;28;20081;-76
2023/02/28 13:08:01;;;;;;;7.63;6.75;;;;;;;;;;4976627;28;20058;-76
2023/02/28 13:10:49;;;;;;;8.55;6.53;;;;;;;;;;4969532;28;20194;-75
2023/02/28 13:13:18;;;;;;;20.80;7.13;;;;;;;;;;4988281;28;20422;-76
2023/02/28 13:15:59;;;;;;;7.70;6.22;;;;;;;;;;4975144;28;20058;-76
2023/02/28 13:18:45;;;;;;;9.43;7.15;;;;;;;;;;4988304;28;20417;-77
2023/02/28 13:21:23;;;;;;;7.30;6.47;;;;;;;;;;4963042;28;20101;-76
2023/02/28 13:23:56;;;;;;;7.15;5.88;;;;;;;;;;4983591;28;20133;-77
2023/02/28 13:26:50;;;;;;;7.63;5.75;;;;;;;;;;4984822;28;20188;-75
2023/02/28 13:29:16;;;;;;;6.40;5.80;;;;;;;;;;4956744;28;20089;-75
2023/02/28 13:32:05;;;;;;;9.73;7.03;;;;;;;;;;4995541;28;20430;-75
2023/02/28 13:35:04;;;;;;;6.40;5.65;;;;;;;;;;4996537;28;20113;-75
2023/02/28 13:37:37;;;;;;;7.43;6.47;;;;;;;;;;4977578;28;20066;-75
2023/02/28 13:40:10;;;;;;;8.45;6.35;;;;;;;;;;4995209;28;20069;-74
2023/02/28 13:42:49;;;;;;;7.90;6.45;;;;;;;;;;4994052;28;20100;-79
2023/02/28 13:45:27;;;;;;;10.55;6.80;;;;;;;;;;4982163;28;20050;-75
2023/02/28 13:48:02;;;;;;;7.50;5.57;;;;;;;;;;4985503;28;20050;-76
2023/02/28 13:50:37;;;;;;;6.88;6.03;;;;;;;;;;4987317;28;20483;-75
2023/02/28 13:53:21;;;;;;;8.75;6.43;;;;;;;;;;5000677;28;20057;-75
2023/02/28 13:56:10;;;;;;;7.55;6.35;;;;;;;;;;4984420;28;20042;-76
2023/02/28 13:58:49;;;;;;;8.07;6.53;;;;;;;;;;4993480;28;20058;-75
2023/02/28 14:01:36;;;;;;;9.80;7.20;;;;;;;;;;4978938;28;20078;-76
2023/02/28 14:04:21;;;;;;;9.80;7.03;;;;;;;;;;4979776;28;20062;-76
2023/02/28 14:06:52;;;;;;;9.52;6.68;;;;;;;;;;4985646;28;20055;-78
2023/02/28 14:09:39;;;;;;;8.75;6.35;;;;;;;;;;4983381;28;20112;-79
2023/02/28 14:12:43;;;;;;;8.55;6.43;;;;;;;;;;4989094;28;20133;-76
2023/02/28 14:15:33;;;;;;;8.55;6.15;;;;;;;;;;4991515;28;20053;-76
2023/02/28 14:18:01;;;;;;;9.63;6.88;;;;;;;;;;4990071;28;20106;-76
2023/02/28 14:20:30;;;;;;;8.90;6.60;;;;;;;;;;4959294;28;20129;-76
2023/02/28 14:23:21;;;;;;;9.15;6.25;;;;;;;;;;4974566;28;20481;-77
2023/02/28 14:25:52;;;;;;;7.80;6.45;;;;;;;;;;4990929;28;20054;-77
2023/02/28 14:28:25;;;;;;;10.75;6.72;;;;;;;;;;4990518;28;20061;-76
2023/02/28 14:30:55;;;;;;;9.30;7.38;;;;;;;;;;4990435;28;20064;-76
2023/02/28 14:33:29;;;;;;;9.23;7.07;;;;;;;;;;4990491;28;20112;-76
2023/02/28 14:36:16;;;;;;;7.60;6.40;;;;;;;;;;4974588;28;20050;-76
2023/02/28 14:38:45;;;;;;;10.45;7.10;;;;;;;;;;4989411;28;20060;-77
2023/02/28 14:41:22;;;;;;;9.52;7.00;;;;;;;;;;4989174;28;20058;-77
2023/02/28 14:43:55;;;;;;;8.63;6.85;;;;;;;;;;4989047;28;20061;-77
2023/02/28 14:46:23;;;;;;;8.18;7.00;;;;;;;;;;4973327;28;20056;-76
2023/02/28 14:48:49;;;;;;;9.27;6.97;;;;;;;;;;4988785;28;20113;-76
2023/02/28 14:51:21;;;;;;;12.30;7.35;;;;;;;;;;4972740;28;20058;-76
2023/02/28 14:54:01;;;;;;;9.68;7.72;;;;;;;;;;4989235;28;20078;-77
2023/02/28 14:56:38;;;;;;;9.32;6.95;;;;;;;;;;4973161;28;20050;-77
2023/02/28 14:59:06;;;;;;;8.70;6.80;;;;;;;;;;4973941;28;20143;-77
2023/02/28 15:01:33;;;;;;;11.13;7.57;;;;;;;;;;4976201;28;20062;-79
2023/02/28 15:04:06;;;;;;;9.52;7.10;;;;;;;;;;4977205;28;20062;-77
2023/02/28 15:06:33;;;;;;;11.30;7.57;;;;;;;;;;4973099;28;20057;-77
2023/02/28 15:09:17;;;;;;;10.25;7.50;;;;;;;;;;4982804;28;20058;-77
2023/02/28 15:11:48;;;;;;;8.30;6.80;;;;;;;;;;4954264;28;20138;-78